createdAt,value
2024-01-06T00:01:00.192Z,26.95
2024-01-06T00:04:02.607Z,24.77
2024-01-06T00:07:04.627Z,30.87
2024-01-06T00:10:07.116Z,26.03
2024-01-06T00:13:09.075Z,27.73
2024-01-06T00:16:10.847Z,28.58
2024-01-06T00:19:12.846Z,29.60
2024-01-06T00:22:14.823Z,27.27
2024-01-06T00:25:16.624Z,27.23
2024-01-06T00:28:19.549Z,30.30
2024-01-06T00:31:21.419Z,28.58
2024-01-06T00:34:23.343Z,25.30
2024-01-06T00:37:25.227Z,27.57
2024-01-06T00:40:27.094Z,25.10
2024-01-06T00:43:28.866Z,28.02
2024-01-06T00:46:30.793Z,25.85
2024-01-06T00:49:32.790Z,18.73
2024-01-06T00:52:34.739Z,26.00
2024-01-06T00:55:36.530Z,23.87
2024-01-06T00:58:38.339Z,27.92
2024-01-06T01:01:40.205Z,25.25
2024-01-06T01:04:42.528Z,24.65
2024-01-06T01:07:44.539Z,22.50
2024-01-06T01:10:46.698Z,23.83
2024-01-06T01:13:48.784Z,25.63
2024-01-06T01:16:54.401Z,24.75
2024-01-06T01:19:56.839Z,19.90
2024-01-06T01:22:58.869Z,37.30
2024-01-06T01:26:00.874Z,22.30
2024-01-06T01:29:03.334Z,24.95
2024-01-06T01:32:05.882Z,18.52
2024-01-06T01:35:08.054Z,17.58
2024-01-06T01:38:10.108Z,19.23
2024-01-06T01:41:12.034Z,17.47
2024-01-06T01:44:14.096Z,20.75
2024-01-06T01:47:19.820Z,16.30
2024-01-06T01:50:23.416Z,20.80
2024-01-06T01:53:26.746Z,21.10
2024-01-06T01:56:28.751Z,22.77
2024-01-06T01:59:30.651Z,19.08
2024-01-06T02:02:33.499Z,23.70
2024-01-06T02:05:35.417Z,18.25
2024-01-06T02:08:37.398Z,24.13
2024-01-06T02:11:39.526Z,18.97
2024-01-06T02:14:42.858Z,22.30
2024-01-06T02:17:44.763Z,17.23
2024-01-06T02:20:47.652Z,26.48
2024-01-06T02:23:49.709Z,19.43
2024-01-06T02:26:51.832Z,21.53
2024-01-06T02:29:53.875Z,18.35
2024-01-06T02:32:55.959Z,14.18
2024-01-06T02:35:58.077Z,18.42
2024-01-06T02:39:00.221Z,20.37
2024-01-06T02:42:02.287Z,18.70
2024-01-06T02:45:04.292Z,19.73
2024-01-06T02:48:06.683Z,20.65
2024-01-06T02:51:08.684Z,20.52
2024-01-06T02:54:10.863Z,18.00
2024-01-06T02:57:14.821Z,19.53
2024-01-06T03:00:16.977Z,18.13
2024-01-06T03:03:20.057Z,15.55
2024-01-06T03:06:22.085Z,23.17
2024-01-06T03:09:23.989Z,21.13
2024-01-06T03:12:25.818Z,17.37
2024-01-06T03:15:27.895Z,20.75
2024-01-06T03:18:29.904Z,18.10
2024-01-06T03:21:31.858Z,22.73
2024-01-06T03:24:33.939Z,17.40
2024-01-06T03:27:35.867Z,14.43
2024-01-06T03:30:37.852Z,19.42
2024-01-06T03:33:39.967Z,23.13
2024-01-06T03:36:42.068Z,23.75
2024-01-06T03:39:43.988Z,18.57
2024-01-06T03:42:46.092Z,15.10
2024-01-06T03:45:48.033Z,14.02
2024-01-06T03:48:50.331Z,17.63
2024-01-06T03:51:52.560Z,18.80
2024-01-06T03:54:54.539Z,17.57
2024-01-06T03:57:56.372Z,17.83
2024-01-06T04:01:00.388Z,13.95
2024-01-06T04:04:05.772Z,14.75
2024-01-06T04:07:08.129Z,18.65
2024-01-06T04:10:10.203Z,15.50
2024-01-06T04:13:12.600Z,15.97
2024-01-06T04:16:14.603Z,14.25
2024-01-06T04:19:16.681Z,13.95
2024-01-06T04:22:18.591Z,13.98
2024-01-06T04:25:20.506Z,10.30
2024-01-06T04:28:22.497Z,12.33
2024-01-06T04:31:24.549Z,14.80
2024-01-06T04:34:26.553Z,10.20
2024-01-06T04:37:28.478Z,15.60
2024-01-06T04:40:30.431Z,12.90
2024-01-06T04:43:32.410Z,10.67
2024-01-06T04:46:34.410Z,9.43
2024-01-06T04:49:36.426Z,9.32
2024-01-06T04:52:38.510Z,9.25
2024-01-06T04:55:40.457Z,13.63
2024-01-06T04:58:42.358Z,8.47
2024-01-06T05:01:44.451Z,12.77
2024-01-06T05:04:46.476Z,10.00
2024-01-06T05:07:48.578Z,8.00
2024-01-06T05:10:50.609Z,7.20
2024-01-06T05:13:52.739Z,7.53
2024-01-06T05:16:54.669Z,9.98
2024-01-06T05:19:57.009Z,9.55
2024-01-06T05:22:59.038Z,14.20
2024-01-06T05:26:01.004Z,9.83
2024-01-06T05:29:02.910Z,8.50
2024-01-06T05:32:04.902Z,9.85
2024-01-06T05:35:07.212Z,7.30
2024-01-06T05:38:09.156Z,10.20
2024-01-06T05:41:11.081Z,9.23
2024-01-06T05:44:16.871Z,8.73
2024-01-06T05:47:18.799Z,8.80
2024-01-06T05:50:20.763Z,7.25
2024-01-06T05:53:22.848Z,15.73
2024-01-06T05:56:27.970Z,8.80
2024-01-06T05:59:29.841Z,9.87
2024-01-06T06:02:33.181Z,12.82
2024-01-06T06:05:35.051Z,9.02
2024-01-06T06:08:37.358Z,9.00
2024-01-06T06:11:39.254Z,10.80
2024-01-06T06:14:41.198Z,9.63
2024-01-06T06:17:43.355Z,9.38
2024-01-06T06:20:45.491Z,8.60
2024-01-06T06:23:47.287Z,16.02
2024-01-06T06:26:49.083Z,9.40
2024-01-06T06:29:51.027Z,9.53
2024-01-06T06:32:52.920Z,8.23
2024-01-06T06:35:54.754Z,14.60
2024-01-06T06:38:59.087Z,9.93
2024-01-06T06:42:00.830Z,12.47
2024-01-06T06:45:02.669Z,12.37
2024-01-06T06:48:04.774Z,10.68
2024-01-06T06:51:06.628Z,11.90
2024-01-06T06:54:08.434Z,8.88
2024-01-06T06:57:10.404Z,11.57
2024-01-06T07:00:12.568Z,8.83
2024-01-06T07:03:15.479Z,10.40
2024-01-06T07:06:17.562Z,10.55
2024-01-06T07:09:23.332Z,11.02
2024-01-06T07:12:25.421Z,9.37
2024-01-06T07:15:27.211Z,9.10
2024-01-06T07:18:29.082Z,8.80
2024-01-06T07:21:30.984Z,9.02
2024-01-06T07:24:32.723Z,6.65
2024-01-06T07:27:34.662Z,10.17
2024-01-06T07:30:36.506Z,12.73
2024-01-06T07:33:38.472Z,8.18
2024-01-06T07:36:41.006Z,13.65
2024-01-06T07:39:43.133Z,11.85
2024-01-06T07:42:45.374Z,12.90
2024-01-06T07:45:47.319Z,7.27
2024-01-06T07:48:49.211Z,8.73
2024-01-06T07:51:51.112Z,5.85
2024-01-06T07:54:53.057Z,3.30
2024-01-06T07:57:54.946Z,6.50
2024-01-06T08:00:56.966Z,8.13
2024-01-06T08:03:59.633Z,10.00
2024-01-06T08:07:01.601Z,9.85
2024-01-06T08:10:06.232Z,9.13
2024-01-06T08:13:08.363Z,9.10
2024-01-06T08:16:10.135Z,11.27
2024-01-06T08:19:12.089Z,8.13
2024-01-06T08:22:16.932Z,5.15
2024-01-06T08:25:23.963Z,9.25
2024-01-06T08:28:28.286Z,6.63
2024-01-06T08:31:30.241Z,8.07
2024-01-06T08:34:33.575Z,6.80
2024-01-06T08:37:35.606Z,7.47
2024-01-06T08:40:37.428Z,8.13
2024-01-06T08:43:39.349Z,9.37
2024-01-06T08:46:41.161Z,7.53
2024-01-06T08:49:43.084Z,10.68
2024-01-06T08:52:44.968Z,9.45
2024-01-06T08:59:03.076Z,8.93
2024-01-06T09:02:04.787Z,11.20
2024-01-06T09:05:06.801Z,11.40
2024-01-06T09:08:08.684Z,7.20
2024-01-06T09:11:10.440Z,9.27
2024-01-06T09:14:12.222Z,7.13
2024-01-06T09:17:14.654Z,9.00
2024-01-06T09:20:18.472Z,8.90
2024-01-06T09:23:22.620Z,12.82
2024-01-06T09:26:26.256Z,12.15
2024-01-06T09:29:28.105Z,10.33
2024-01-06T09:32:30.010Z,12.07
2024-01-06T09:35:31.816Z,6.60
2024-01-06T09:38:34.495Z,7.25
2024-01-06T09:41:36.454Z,10.75
2024-01-06T09:44:38.372Z,10.90
2024-01-06T09:47:41.565Z,8.83
2024-01-06T09:50:45.655Z,10.85
2024-01-06T09:53:54.124Z,6.40
2024-01-06T09:56:57.719Z,14.20
2024-01-06T10:00:00.751Z,10.43
2024-01-06T10:03:02.545Z,11.87
2024-01-06T10:06:05.533Z,13.30
2024-01-06T10:09:07.666Z,13.75
2024-01-06T10:12:10.656Z,12.43
2024-01-06T10:15:15.752Z,16.17
2024-01-06T10:18:17.844Z,14.90
2024-01-06T10:21:21.323Z,11.75
2024-01-06T10:24:23.263Z,14.90
2024-01-06T10:27:25.091Z,9.93
2024-01-06T10:30:26.971Z,10.77
2024-01-06T10:33:28.982Z,9.67
2024-01-06T10:36:32.403Z,8.25
2024-01-06T10:39:37.356Z,9.23
2024-01-06T10:42:40.955Z,15.25
2024-01-06T10:45:43.385Z,8.97
2024-01-06T10:48:46.790Z,12.47
2024-01-06T10:51:49.759Z,11.95
2024-01-06T10:54:52.460Z,12.63
2024-01-06T10:57:54.307Z,11.85
2024-01-06T11:00:59.593Z,10.17
2024-01-06T11:04:01.554Z,8.73
2024-01-06T11:07:03.514Z,5.20
2024-01-06T11:10:07.785Z,7.85
2024-01-06T11:13:11.279Z,4.57
2024-01-06T11:16:13.102Z,7.37
2024-01-06T11:19:33.666Z,9.63
2024-01-06T11:22:40.889Z,5.55
2024-01-06T11:25:42.694Z,7.10
2024-01-06T11:28:45.674Z,13.30
2024-01-06T11:32:06.107Z,10.20
2024-01-06T11:35:11.629Z,5.83
2024-01-06T11:38:13.721Z,12.00
2024-01-06T11:41:35.447Z,7.68
2024-01-06T11:44:40.587Z,7.60
2024-01-06T11:47:46.917Z,12.23
2024-01-06T11:50:48.733Z,10.17
2024-01-06T11:53:50.625Z,18.52
2024-01-06T11:56:55.091Z,10.10
2024-01-06T11:59:57.055Z,12.77
2024-01-06T12:02:59.408Z,12.10
2024-01-06T12:06:04.518Z,13.30
2024-01-06T12:09:20.202Z,16.88
2024-01-06T12:12:22.096Z,10.18
2024-01-06T12:15:24.631Z,14.80
2024-01-06T12:18:26.486Z,13.23
2024-01-06T12:21:28.955Z,16.53
2024-01-06T12:24:31.310Z,15.00
2024-01-06T12:27:33.785Z,14.55
2024-01-06T12:30:36.675Z,17.23
2024-01-06T12:33:42.126Z,13.10
2024-01-06T12:36:45.239Z,15.93
2024-01-06T12:39:48.444Z,12.25
2024-01-06T12:42:50.267Z,14.27
2024-01-06T12:45:54.034Z,14.68
2024-01-06T12:48:56.082Z,10.30
2024-01-06T12:51:58.152Z,11.27
2024-01-06T12:54:59.942Z,16.30
2024-01-06T12:58:05.078Z,13.73
2024-01-06T13:01:08.263Z,13.55
2024-01-06T13:04:10.392Z,11.80
2024-01-06T13:07:12.331Z,10.87
2024-01-06T13:10:14.388Z,9.88
2024-01-06T13:13:16.492Z,11.95
2024-01-06T13:16:18.429Z,10.90
2024-01-06T13:19:21.371Z,15.33
2024-01-06T13:22:23.328Z,9.20
2024-01-06T13:25:25.201Z,18.00
2024-01-06T13:28:26.927Z,15.80
2024-01-06T13:31:28.962Z,11.68
2024-01-06T13:34:31.328Z,12.83
2024-01-06T13:37:34.599Z,14.97
2024-01-06T13:40:36.882Z,22.02
2024-01-06T13:43:38.698Z,16.35
2024-01-06T13:46:42.256Z,17.27
2024-01-06T13:49:44.253Z,19.03
2024-01-06T13:52:49.844Z,17.70
2024-01-06T13:55:51.913Z,16.73
2024-01-06T13:58:53.783Z,21.17
2024-01-06T14:01:55.701Z,18.17
2024-01-06T14:04:57.436Z,28.83
2024-01-06T14:07:59.176Z,18.03
2024-01-06T14:11:00.903Z,17.25
2024-01-06T14:14:02.667Z,17.30
2024-01-06T14:17:04.646Z,17.98
2024-01-06T14:20:06.893Z,21.13
2024-01-06T14:23:09.761Z,17.80
2024-01-06T14:26:11.681Z,20.73
2024-01-06T14:29:17.468Z,20.40
2024-01-06T14:32:19.253Z,18.48
2024-01-06T14:35:20.993Z,21.63
2024-01-06T14:38:22.881Z,18.50
2024-01-06T14:41:24.677Z,21.48
2024-01-06T14:44:28.328Z,27.40
2024-01-06T14:47:30.222Z,25.10
2024-01-06T14:50:32.135Z,16.07
2024-01-06T14:53:35.923Z,21.50
2024-01-06T14:56:42.126Z,17.13
2024-01-06T14:59:44.398Z,17.15
2024-01-06T15:02:48.824Z,15.45
2024-01-06T15:05:50.759Z,19.17
2024-01-06T15:08:52.659Z,13.57
2024-01-06T15:11:54.462Z,15.35
2024-01-06T15:14:56.289Z,14.27
2024-01-06T15:17:58.272Z,18.23
2024-01-06T15:21:00.104Z,16.97
2024-01-06T15:24:02.135Z,14.83
2024-01-06T15:27:04.559Z,18.17
2024-01-06T15:30:09.065Z,14.98
2024-01-06T15:33:11.068Z,20.27
2024-01-06T15:36:12.880Z,22.43
2024-01-06T15:39:15.300Z,17.80
2024-01-06T15:42:17.112Z,20.40
2024-01-06T15:45:18.989Z,23.52
2024-01-06T15:48:23.571Z,25.70
2024-01-06T15:51:27.244Z,29.67
2024-01-06T15:54:29.207Z,23.67
2024-01-06T15:57:33.215Z,22.55
2024-01-06T16:00:37.347Z,22.50
2024-01-06T16:03:40.308Z,30.77
2024-01-06T16:06:42.307Z,13.57
2024-01-06T16:09:46.848Z,18.03
2024-01-06T16:12:54.040Z,20.92
2024-01-06T16:15:55.833Z,15.05
2024-01-06T16:18:57.867Z,18.90
2024-01-06T16:22:10.754Z,13.67
2024-01-06T16:25:19.026Z,16.23
2024-01-06T16:28:22.516Z,11.38
2024-01-06T16:31:26.449Z,16.77
2024-01-06T16:34:28.660Z,22.38
2024-01-06T16:37:30.489Z,20.30
2024-01-06T16:40:32.226Z,22.13
2024-01-06T16:43:38.479Z,14.98
2024-01-06T16:46:40.275Z,18.33
2024-01-06T16:49:42.105Z,20.35
2024-01-06T16:52:43.845Z,20.77
2024-01-06T16:55:45.608Z,23.33
2024-01-06T16:58:47.347Z,26.52
2024-01-06T17:01:49.222Z,25.85
2024-01-06T17:04:51.421Z,22.25
2024-01-06T17:07:53.663Z,22.07
2024-01-06T17:10:55.480Z,23.73
2024-01-06T17:13:57.312Z,22.63
2024-01-06T17:16:59.206Z,24.50
2024-01-06T17:20:01.023Z,18.63
2024-01-06T17:23:03.173Z,17.57
2024-01-06T17:26:05.007Z,17.63
2024-01-06T17:29:07.624Z,17.85
2024-01-06T17:32:09.610Z,15.68
2024-01-06T17:35:11.554Z,16.50
2024-01-06T17:38:13.429Z,10.70
2024-01-06T17:41:16.432Z,12.30
2024-01-06T17:44:19.630Z,14.07
2024-01-06T17:47:21.461Z,15.82
2024-01-06T17:50:23.226Z,13.52
2024-01-06T17:53:25.414Z,17.07
2024-01-06T17:56:27.550Z,22.10
2024-01-06T17:59:29.905Z,24.38
2024-01-06T18:02:31.725Z,22.95
2024-01-06T18:05:34.333Z,31.35
2024-01-06T18:08:36.320Z,23.83
2024-01-06T18:11:39.717Z,20.13
2024-01-06T18:14:41.558Z,19.92
2024-01-06T18:17:43.458Z,19.80
2024-01-06T18:20:47.947Z,12.68
2024-01-06T18:23:51.368Z,18.87
2024-01-06T18:26:53.145Z,22.53
2024-01-06T18:29:54.949Z,22.60
2024-01-06T18:32:58.694Z,17.80
2024-01-06T18:36:00.628Z,12.90
2024-01-06T18:39:02.485Z,14.73
2024-01-06T18:42:04.507Z,14.57
2024-01-06T18:45:06.506Z,13.45
2024-01-06T18:48:08.454Z,20.30
2024-01-06T18:51:10.365Z,18.35
2024-01-06T18:54:16.780Z,16.03
2024-01-06T18:57:25.382Z,15.83
2024-01-06T19:00:27.280Z,16.85
2024-01-06T19:03:29.081Z,21.95
2024-01-06T19:06:34.368Z,18.38
2024-01-06T19:10:45.288Z,16.47
2024-01-06T19:13:47.485Z,17.77
2024-01-06T19:16:49.373Z,21.38
2024-01-06T19:19:51.736Z,17.92
2024-01-06T19:23:02.105Z,18.83
2024-01-06T19:26:10.833Z,17.53
2024-01-06T19:29:12.854Z,17.43
2024-01-06T19:32:16.298Z,17.73
2024-01-06T19:35:18.383Z,19.67
2024-01-06T19:38:20.758Z,20.02
2024-01-06T19:41:22.699Z,17.37
2024-01-06T19:44:25.040Z,17.37
2024-01-06T19:47:27.381Z,18.63
2024-01-06T19:50:29.519Z,17.75
2024-01-06T19:53:31.754Z,16.52
2024-01-06T19:56:33.540Z,12.63
2024-01-06T19:59:35.549Z,16.60
2024-01-06T20:02:38.138Z,17.48
2024-01-06T20:05:40.840Z,16.02
2024-01-06T20:08:42.694Z,13.45
2024-01-06T20:11:47.047Z,7.10
2024-01-06T20:14:57.786Z,9.07
2024-01-06T20:17:59.833Z,13.63
2024-01-06T20:21:04.341Z,15.48
2024-01-06T20:24:06.668Z,7.32
2024-01-06T20:27:08.946Z,13.87
2024-01-06T20:30:13.952Z,10.03
2024-01-06T20:33:16.900Z,15.00
2024-01-06T20:36:19.641Z,12.80
2024-01-06T20:39:21.637Z,16.33
2024-01-06T20:42:23.535Z,14.20
2024-01-06T20:45:25.718Z,16.60
2024-01-06T20:48:27.882Z,18.80
2024-01-06T20:51:29.999Z,12.07
2024-01-06T20:54:32.148Z,13.98
2024-01-06T20:57:34.006Z,13.93
2024-01-06T21:00:36.276Z,16.50
2024-01-06T21:03:42.489Z,16.48
2024-01-06T21:06:44.540Z,17.83
2024-01-06T21:09:46.488Z,16.27
2024-01-06T21:12:48.670Z,22.23
2024-01-06T21:15:50.913Z,13.73
2024-01-06T21:18:53.303Z,16.27
2024-01-06T21:21:55.294Z,9.98
2024-01-06T21:24:57.344Z,9.95
2024-01-06T21:27:59.283Z,12.47
2024-01-06T21:31:01.219Z,13.33
2024-01-06T21:34:03.297Z,13.13
2024-01-06T21:37:05.241Z,16.63
2024-01-06T21:40:09.640Z,16.02
2024-01-06T21:43:11.689Z,8.37
2024-01-06T21:46:13.510Z,12.07
2024-01-06T21:49:15.448Z,14.23
2024-01-06T21:52:18.407Z,11.25
2024-01-06T21:55:20.238Z,11.98
2024-01-06T21:58:22.073Z,15.70
2024-01-06T22:01:23.897Z,12.57
2024-01-06T22:04:26.266Z,10.27
2024-01-06T22:07:28.313Z,11.75
2024-01-06T22:10:33.695Z,12.00
2024-01-06T22:13:35.665Z,12.47
2024-01-06T22:16:37.460Z,13.97
2024-01-06T22:19:40.265Z,9.88
2024-01-06T22:22:42.166Z,12.90
2024-01-06T22:25:44.069Z,12.68
2024-01-06T22:28:46.608Z,10.67
2024-01-06T22:31:48.902Z,18.57
2024-01-06T22:34:52.282Z,8.43
2024-01-06T22:37:55.528Z,8.38
2024-01-06T22:40:57.260Z,10.38
2024-01-06T22:43:59.011Z,8.70
2024-01-06T22:47:01.004Z,9.33
2024-01-06T22:50:02.742Z,6.70
2024-01-06T22:53:05.675Z,9.50
2024-01-06T22:56:09.874Z,9.55
2024-01-06T22:59:11.630Z,7.47
2024-01-06T23:02:13.491Z,10.13
2024-01-06T23:05:15.744Z,11.32
2024-01-06T23:08:17.937Z,7.97
2024-01-06T23:11:19.830Z,8.75
2024-01-06T23:14:21.606Z,8.13
2024-01-06T23:17:23.499Z,8.80
2024-01-06T23:20:25.312Z,7.72
2024-01-06T23:23:27.116Z,8.75
2024-01-06T23:26:28.940Z,6.90
2024-01-06T23:29:30.735Z,8.30
2024-01-06T23:32:32.626Z,8.47
2024-01-06T23:35:34.533Z,8.85
2024-01-06T23:38:36.413Z,6.82
2024-01-06T23:41:38.194Z,7.45
2024-01-06T23:44:40.027Z,7.43
2024-01-06T23:47:41.833Z,6.80
2024-01-06T23:50:43.618Z,7.35
2024-01-06T23:53:45.541Z,5.32
2024-01-06T23:56:47.279Z,5.15
2024-01-06T23:59:49.058Z,7.03
